Strona główna
METAR-TAF:

METAR-TAF

Lotnisko :

Platforma wiertnicza

Ekofisk, Norwegia

Szerokość geograficzna: 56-33N, Długość geograficzna: 003-15E, wysokość: 3 m

Aktualna obserwacja pogody

Raport powstał 22 minut temu, godzina 01:50 UTC
Wiatr 23 kt od zachód
Temperatura 7°C
Wilgotność 87%
Ciśnienie 1021 hPa
Widzialność 10 km lub więcej
Rozproszone chmury na wysokości 1200 ft
Przerywane chmury na wysokości 5000 ft

METAR: ENLE 010150Z 28023KT 9999 SCT012 BKN050 07/05 Q1021 W07/S4

czas: 04:12 (02:12 UTC)

Prognoza

Raport powstał 3 godziny i 12 minut temu, godzina 23:00 UTC
Prognoza ważna od 01 godzina 00 UTC do 01 godzina 09 UTC
Wiatr 25 kt od zachód
Widzialność 10 km lub więcej
Mało chmury na wysokości 1500 ft, Cumulusy wypiętrznone.
Przerywane chmury na wysokości 4000 ft
słaby przelotny opad deszczu

TAF: ENLE 312300Z 0100/0109 28025KT 9999 -SHRA FEW015TCU BKN040

Obserwacja i prognoza pogody dla ponad 4000 lotnisk (raport METAR i TAF).

Dostępne stacje oznaczono żółtymi i czerwonymi punktami na mapie.

Najedź kursorem aby zobaczyć nazwę stacji.

Kliknij aby zobaczyć obserwacje i prognozy pogody.

Aby zmienić mapę: kliknij na zielony przycisk z czarnym krzyżykiem, aby powiększyć; na zielony przycisk z myślnikiem, aby pomniejszyć; na zielone strzałki, aby przejść do map sąsiednich.


METAR-TAF: